Time;durP1;ratioP1;P1;durP2;ratioP2;P2;SDS_P1;SDS_P2;PMS_P1;PMS_P2;Temp;Humidity;BMP_temperature;BMP_pressure;BME280_temperature;BME280_humidity;BME280_pressure;Samples;Min_cycle;Max_cycle;Signal;HPM_P1;HPM_P2
2022/12/13 00:00:32;;;;;;;;;6.60;6.00;;;;;-3.48;84.36;99525.72;5078282;28;8834;-59
2022/12/13 00:03:00;;;;;;;;;7.60;7.60;;;;;-3.46;84.20;99517.88;5077142;28;8848;-59
2022/12/13 00:05:28;;;;;;;;;11.60;10.40;;;;;-3.46;84.27;99523.06;5076750;28;8884;-59
2022/12/13 00:07:56;;;;;;;;;5.60;3.20;;;;;-3.48;83.96;99515.31;5077849;28;8833;-59
2022/12/13 00:10:25;;;;;;;;;9.00;5.80;;;;;-3.48;84.54;99504.91;5077754;28;8833;-59
2022/12/13 00:12:53;;;;;;;;;11.80;10.00;;;;;-3.48;84.50;99515.31;5077574;28;8872;-59
2022/12/13 00:15:21;;;;;;;;;6.60;6.60;;;;;-3.48;83.96;99504.06;5077597;28;8856;-59
2022/12/13 00:17:49;;;;;;;;;9.20;8.20;;;;;-3.49;84.48;99510.16;5077719;28;8822;-58
2022/12/13 00:20:16;;;;;;;;;4.40;4.40;;;;;-3.51;84.22;99509.34;5077481;28;8906;-59
2022/12/13 00:22:44;;;;;;;;;6.00;4.40;;;;;-3.53;84.31;99505.94;5077291;28;8846;-59
2022/12/13 00:25:12;;;;;;;;;4.80;4.80;;;;;-3.56;84.28;99506.03;5077360;28;8834;-58
2022/12/13 00:27:40;;;;;;;;;10.80;8.20;;;;;-3.58;84.18;99503.47;5077151;28;8826;-58
2022/12/13 00:30:08;;;;;;;;;6.20;6.20;;;;;-3.59;84.57;99506.13;5076885;28;9569;-58
2022/12/13 00:32:36;;;;;;;;;5.60;5.60;;;;;-3.60;84.30;99509.63;5076505;28;8856;-58
2022/12/13 00:35:05;;;;;;;;;7.60;7.40;;;;;-3.62;84.10;99503.63;5077699;28;8826;-59
2022/12/13 00:37:33;;;;;;;;;7.80;6.80;;;;;-3.65;84.21;99507.16;5077692;28;8821;-59
2022/12/13 00:40:01;;;;;;;;;9.40;6.80;;;;;-3.66;83.97;99500.25;5077150;28;8841;-56
2022/12/13 00:42:28;;;;;;;;;3.20;3.00;;;;;-3.66;84.37;99504.59;5076777;28;8858;-59
2022/12/13 00:44:56;;;;;;;;;9.00;6.20;;;;;-3.67;84.36;99498.56;5077613;28;8954;-58
2022/12/13 00:47:26;;;;;;;;;1.80;1.40;;;;;-3.67;84.31;99490.75;5077271;28;8845;-58
2022/12/13 00:49:54;;;;;;;;;2.60;1.80;;;;;-3.68;84.07;99496.88;5077390;28;8806;-59
2022/12/13 00:52:22;;;;;;;;;7.80;6.60;;;;;-3.68;84.34;99489.06;5078195;28;8840;-59
2022/12/13 00:54:49;;;;;;;;;8.60;7.00;;;;;-3.68;84.37;99486.47;5078333;28;9503;-57
2022/12/13 00:57:17;;;;;;;;;8.20;6.40;;;;;-3.70;84.17;99482.19;5077820;28;8856;-58
2022/12/13 00:59:44;;;;;;;;;5.20;3.80;;;;;-3.72;84.47;99481.41;5077439;28;8818;-58
2022/12/13 01:02:12;;;;;;;;;7.40;6.40;;;;;-3.76;83.87;99477.19;5077899;28;8995;-58
2022/12/13 01:04:40;;;;;;;;;7.40;7.00;;;;;-3.80;84.17;99481.63;5078056;28;8826;-58
2022/12/13 01:07:08;;;;;;;;;7.40;7.40;;;;;-3.85;84.29;99477.47;5077603;28;8826;-58
2022/12/13 01:09:36;;;;;;;;;7.00;7.00;;;;;-3.89;84.07;99478.44;5078342;28;8850;-58
2022/12/13 01:12:04;;;;;;;;;4.80;4.00;;;;;-3.94;84.18;99477.75;5077867;28;8834;-58
2022/12/13 01:14:32;;;;;;;;;6.60;4.00;;;;;-3.96;83.86;99479.50;5077891;28;8822;-57
2022/12/13 01:17:00;;;;;;;;;7.40;7.00;;;;;-3.97;84.29;99477.81;5077638;28;8837;-58
2022/12/13 01:19:28;;;;;;;;;6.60;5.80;;;;;-3.97;84.37;99479.56;5077380;28;8887;-57
2022/12/13 01:21:55;;;;;;;;;6.40;6.00;;;;;-3.99;84.42;99474.41;5077234;28;8852;-57
2022/12/13 01:24:26;;;;;;;;;8.40;7.40;;;;;-3.96;84.15;99482.09;5077200;28;8830;-58
2022/12/13 01:26:53;;;;;;;;;5.00;5.00;;;;;-3.97;83.59;99484.78;5077326;28;8849;-56
2022/12/13 01:29:23;;;;;;;;;3.00;3.00;;;;;-3.99;84.68;99484.81;5077081;28;8846;-59
2022/12/13 01:31:52;;;;;;;;;4.00;4.00;;;;;-3.98;83.93;99491.69;5077516;28;8872;-57
2022/12/13 01:34:20;;;;;;;;;7.60;6.60;;;;;-3.98;84.27;99491.69;5077908;28;8822;-57
2022/12/13 01:36:53;;;;;;;;;5.40;4.40;;;;;-3.99;84.02;99490.00;5077748;28;8864;-58
2022/12/13 01:39:25;;;;;;;;;3.00;3.00;;;;;-4.00;84.18;99490.91;5077725;28;8825;-58
2022/12/13 01:41:58;;;;;;;;;7.00;6.20;;;;;-4.02;84.19;99486.66;5077177;28;8822;-57
2022/12/13 01:44:26;;;;;;;;;9.60;7.80;;;;;-4.04;83.87;99491.88;5076355;28;8862;-58
2022/12/13 01:46:53;;;;;;;;;7.80;7.40;;;;;-4.06;83.88;99498.00;5074513;28;8830;-57
2022/12/13 01:49:21;;;;;;;;;3.00;3.00;;;;;-4.09;84.22;99491.19;5074288;28;8806;-58
2022/12/13 01:51:49;;;;;;;;;4.00;4.00;;;;;-4.11;84.13;99490.34;5074534;28;8907;-58
2022/12/13 01:54:17;;;;;;;;;7.00;6.60;;;;;-4.15;84.17;99488.75;5074863;28;8858;-58
2022/12/13 01:56:48;;;;;;;;;4.00;3.40;;;;;-4.18;84.15;99487.97;5075239;28;8833;-58
2022/12/13 01:59:16;;;;;;;;;3.20;3.20;;;;;-4.22;84.33;99492.41;5075384;28;8830;-58
2022/12/13 02:01:44;;;;;;;;;4.40;4.40;;;;;-4.27;84.48;99491.66;5076015;28;8822;-57
2022/12/13 02:04:12;;;;;;;;;6.00;5.20;;;;;-4.31;84.61;99495.28;5075490;28;8829;-58
2022/12/13 02:06:39;;;;;;;;;6.00;3.60;;;;;-4.32;84.76;99496.16;5075700;28;8822;-57
2022/12/13 02:09:07;;;;;;;;;3.80;3.80;;;;;-4.34;84.52;99497.94;5075828;28;8821;-57
2022/12/13 02:11:36;;;;;;;;;9.40;7.00;;;;;-4.34;84.48;99497.94;5075362;28;8833;-57
2022/12/13 02:14:04;;;;;;;;;7.40;7.20;;;;;-4.34;85.26;99487.53;5075809;28;8869;-56
2022/12/13 02:16:32;;;;;;;;;1.80;1.80;;;;;-4.33;84.47;99483.22;5075307;28;8837;-58
2022/12/13 02:19:00;;;;;;;;;4.40;4.40;;;;;-4.34;83.82;99489.31;5075113;28;9573;-57
2022/12/13 02:21:27;;;;;;;;;8.60;8.60;;;;;-4.34;84.33;99489.31;5075333;28;8822;-59
2022/12/13 02:23:56;;;;;;;;;4.00;4.00;;;;;-4.36;84.40;99491.06;5074998;28;8822;-59
2022/12/13 02:26:24;;;;;;;;;6.00;6.00;;;;;-4.37;84.41;99503.22;5075363;28;9556;-58
2022/12/13 02:28:51;;;;;;;;;6.25;6.25;;;;;-4.39;84.37;99498.97;5074119;28;8814;-56
2022/12/13 02:31:19;;;;;;;;;6.80;6.00;;;;;-4.41;84.29;99501.59;5075213;28;8810;-56
2022/12/13 02:33:47;;;;;;;;;6.80;6.00;;;;;-4.43;84.57;99494.75;5075508;28;8838;-58
2022/12/13 02:36:14;;;;;;;;;1.00;1.00;;;;;-4.46;84.36;99490.50;5075062;28;8838;-57
2022/12/13 02:38:43;;;;;;;;;7.00;7.00;;;;;-4.48;84.39;99499.22;5075134;28;8844;-57
2022/12/13 02:41:11;;;;;;;;;6.80;6.00;;;;;-4.52;84.33;99498.44;5074874;28;9553;-56
2022/12/13 02:43:39;;;;;;;;;4.80;4.00;;;;;-4.55;85.03;99492.47;5075345;28;8858;-59
2022/12/13 02:46:12;;;;;;;;;2.60;2.60;;;;;-4.58;84.25;99483.00;5074810;28;8837;-58
2022/12/13 02:48:41;;;;;;;;;10.80;8.20;;;;;-4.55;84.50;99492.47;5074723;28;8802;-58
2022/12/13 02:51:09;;;;;;;;;6.80;6.80;;;;;-4.56;84.25;99483.81;5075109;28;8824;-59
2022/12/13 02:53:36;;;;;;;;;6.80;5.60;;;;;-4.56;84.28;99486.41;5075016;28;8922;-59
2022/12/13 02:56:04;;;;;;;;;7.80;7.00;;;;;-4.57;84.37;99484.72;5075053;28;8842;-59
2022/12/13 02:58:32;;;;;;;;;4.60;3.40;;;;;-4.59;84.31;99486.50;5074870;28;8833;-56
2022/12/13 03:01:01;;;;;;;;;4.00;3.80;;;;;-4.60;84.01;99486.53;5074685;28;8914;-59
2022/12/13 03:03:29;;;;;;;;;5.20;4.00;;;;;-4.63;83.86;99481.44;5075185;28;8846;-58
2022/12/13 03:08:42;;;;;;;;;3.60;3.60;;;;;-4.67;84.45;99488.47;5074806;28;8850;-59
2022/12/13 03:11:11;;;;;;;;;3.40;3.00;;;;;-4.70;84.65;99482.50;5074685;28;8922;-57
2022/12/13 03:13:38;;;;;;;;;7.00;7.00;;;;;-4.70;83.92;99485.97;5073661;28;9547;-56
2022/12/13 03:16:06;;;;;;;;;1.00;1.00;;;;;-4.69;84.17;99489.38;5074581;28;8814;-58
2022/12/13 03:18:33;;;;;;;;;8.60;8.60;;;;;-4.68;84.43;99486.75;5074651;28;8826;-56
2022/12/13 03:21:01;;;;;;;;;0.00;0.00;;;;;-4.64;84.19;99492.72;5074655;28;8818;-57
2022/12/13 03:23:30;;;;;;;;;3.40;3.40;;;;;-4.64;84.61;99490.97;5079849;28;8833;-58
2022/12/13 03:25:58;;;;;;;;;0.80;0.80;;;;;-4.65;84.62;99496.22;5081424;28;9573;-58
2022/12/13 03:28:25;;;;;;;;;4.00;4.00;;;;;-4.67;84.25;99492.78;5081361;28;8840;-58
2022/12/13 03:30:53;;;;;;;;;4.80;4.80;;;;;-4.70;84.78;99498.94;5081146;28;8826;-59
2022/12/13 03:33:21;;;;;;;;;4.80;4.80;;;;;-4.72;84.37;99498.09;5081349;28;8833;-58
2022/12/13 03:35:49;;;;;;;;;7.00;6.00;;;;;-4.73;83.80;99501.59;5081121;28;8871;-59
2022/12/13 03:38:17;;;;;;;;;5.00;3.80;;;;;-4.76;84.43;99496.50;5080514;28;8818;-56
2022/12/13 03:40:49;;;;;;;;;6.60;5.20;;;;;-4.75;84.48;99495.59;5081309;28;8860;-59
2022/12/13 03:43:17;;;;;;;;;6.40;6.40;;;;;-4.75;84.42;99487.81;5081307;28;8854;-58
2022/12/13 03:45:49;;;;;;;;;3.40;3.00;;;;;-4.75;84.52;99495.59;5080872;28;8852;-59
2022/12/13 03:48:17;;;;;;;;;9.60;7.00;;;;;-4.73;84.71;99485.19;5080719;28;8838;-59
2022/12/13 03:50:49;;;;;;;;;0.00;0.00;;;;;-4.75;84.42;99485.22;5081162;28;8879;-58
2022/12/13 03:53:17;;;;;;;;;11.60;7.40;;;;;-4.75;84.27;99481.75;5081283;28;8907;-59
2022/12/13 03:55:59;;;;;;;;;3.60;3.60;;;;;-4.78;84.30;99482.69;5082185;28;8822;-59
2022/12/13 03:58:28;;;;;;;;;4.00;3.60;;;;;-4.81;84.45;99479.31;5081976;28;8849;-58
2022/12/13 04:01:04;;;;;;;;;2.20;2.20;;;;;-4.85;84.41;99475.09;5081881;28;8826;-58
2022/12/13 04:03:31;;;;;;;;;6.80;6.20;;;;;-4.92;84.50;99477.03;5081595;28;8926;-57
2022/12/13 04:06:02;;;;;;;;;6.00;6.00;;;;;-4.96;84.16;99470.19;5081858;28;8914;-57
2022/12/13 04:08:29;;;;;;;;;0.40;0.40;;;;;-4.99;84.18;99465.09;5081750;28;8930;-58
2022/12/13 04:10:57;;;;;;;;;3.00;1.00;;;;;-4.99;84.40;99459.91;5081707;28;8972;-57
2022/12/13 04:13:33;;;;;;;;;3.60;2.20;;;;;-5.04;83.96;99469.53;5081753;28;8923;-58
2022/12/13 04:16:01;;;;;;;;;6.00;6.00;;;;;-5.07;84.38;99467.03;5081731;28;9500;-58
2022/12/13 04:18:29;;;;;;;;;3.25;3.25;;;;;-5.07;84.50;99469.63;5081164;28;9511;-58
2022/12/13 04:20:57;;;;;;;;;4.60;2.20;;;;;-5.08;84.30;99470.47;5081036;28;8835;-58
2022/12/13 04:23:25;;;;;;;;;3.20;3.20;;;;;-5.07;84.20;99472.22;5081663;28;8841;-59
2022/12/13 04:25:52;;;;;;;;;8.00;7.50;;;;;-5.08;84.67;99469.66;5081252;28;8842;-60
2022/12/13 04:28:20;;;;;;;;;6.25;5.00;;;;;-5.07;84.42;99471.34;5081411;28;8914;-59
2022/12/13 04:30:49;;;;;;;;;4.40;4.40;;;;;-5.08;84.64;99473.06;5081277;28;8826;-59
2022/12/13 04:33:20;;;;;;;;;4.00;2.50;;;;;-5.08;84.66;99467.88;5080744;28;8837;-59
2022/12/13 04:35:48;;;;;;;;;5.20;3.80;;;;;-5.09;84.41;99466.19;5078286;28;8868;-59
2022/12/13 04:38:15;;;;;;;;;3.80;3.80;;;;;-5.08;84.66;99470.47;5078214;28;9487;-59
2022/12/13 04:40:43;;;;;;;;;5.00;3.60;;;;;-5.10;84.31;99468.84;5078459;28;9523;-59
2022/12/13 04:43:11;;;;;;;;;3.40;3.40;;;;;-5.10;84.34;99474.88;5077977;28;8838;-59
2022/12/13 04:45:38;;;;;;;;;0.40;0.00;;;;;-5.11;84.52;99473.16;5078382;28;8865;-59
2022/12/13 04:48:07;;;;;;;;;6.20;5.40;;;;;-5.13;84.42;99472.34;5078215;28;8850;-59
2022/12/13 04:50:34;;;;;;;;;6.25;3.00;;;;;-5.15;84.10;99468.97;5078168;28;8922;-59
2022/12/13 04:53:02;;;;;;;;;6.20;5.20;;;;;-5.16;84.83;99464.63;5077757;28;8838;-59
2022/12/13 04:55:30;;;;;;;;;6.00;5.60;;;;;-5.19;84.33;99472.50;5077681;28;8833;-59
2022/12/13 04:57:58;;;;;;;;;3.20;3.00;;;;;-5.21;84.44;99458.72;5077474;28;8845;-59
2022/12/13 05:00:25;;;;;;;;;2.60;2.60;;;;;-5.23;84.56;99463.09;5077154;28;8821;-57
2022/12/13 05:02:53;;;;;;;;;4.40;4.00;;;;;-5.26;84.51;99455.38;5077266;28;8830;-58
2022/12/13 05:05:21;;;;;;;;;7.00;6.50;;;;;-5.27;84.22;99452.81;5077047;28;8907;-59
2022/12/13 05:07:49;;;;;;;;;2.50;2.50;;;;;-5.31;84.33;99457.22;5076451;28;8931;-57
2022/12/13 05:10:16;;;;;;;;;0.80;0.80;;;;;-5.34;84.41;99449.53;5076106;28;9503;-58
2022/12/13 05:13:04;;;;;;;;;3.60;2.20;;;;;-5.37;84.73;99449.63;5076413;28;8838;-58
2022/12/13 05:15:32;;;;;;;;;3.00;3.00;;;;;-5.38;84.18;99455.66;5076379;28;8845;-59
2022/12/13 05:18:00;;;;;;;;;3.60;3.60;;;;;-5.41;84.37;99453.16;5076052;28;8907;-59
2022/12/13 05:20:36;;;;;;;;;4.50;4.50;;;;;-5.41;83.91;99454.94;5076551;28;8842;-59
2022/12/13 05:23:04;;;;;;;;;1.50;1.50;;;;;-5.41;84.37;99445.38;5076741;28;8834;-59
2022/12/13 05:25:32;;;;;;;;;4.00;3.00;;;;;-5.42;84.24;99448.88;5076852;28;8923;-59
2022/12/13 05:28:02;;;;;;;;;3.00;2.50;;;;;-5.43;84.30;99446.31;5076894;28;8838;-59
2022/12/13 05:30:50;;;;;;;;;2.75;2.75;;;;;-5.45;84.48;99442.91;5077001;28;8877;-58
2022/12/13 05:33:18;;;;;;;;;4.50;4.00;;;;;-5.47;84.45;99442.09;5076848;28;8841;-58
2022/12/13 05:35:46;;;;;;;;;6.00;6.00;;;;;-5.47;84.17;99440.34;5076321;28;8834;-59
2022/12/13 05:38:15;;;;;;;;;9.00;9.00;;;;;-5.47;84.62;99435.16;5076963;28;8879;-59
2022/12/13 05:40:43;;;;;;;;;2.50;1.00;;;;;-5.46;84.80;99434.25;5076906;28;8806;-57
2022/12/13 05:43:10;;;;;;;;;1.80;1.80;;;;;-5.48;84.15;99433.47;5076792;28;8849;-57
2022/12/13 05:45:48;;;;;;;;;5.50;5.50;;;;;-5.49;84.24;99434.34;5075713;28;8841;-59
2022/12/13 05:48:19;;;;;;;;;6.00;6.00;;;;;-5.51;84.17;99430.94;5076132;28;8822;-57
2022/12/13 05:50:51;;;;;;;;;5.00;3.75;;;;;-5.52;84.40;99426.66;5076058;28;8821;-59
2022/12/13 05:53:37;;;;;;;;;3.25;3.25;;;;;-5.55;84.65;99429.31;5076334;28;8887;-59
2022/12/13 05:56:05;;;;;;;;;3.75;2.50;;;;;-5.59;84.42;99419.91;5076371;28;8822;-59
2022/12/13 05:58:34;;;;;;;;;4.00;4.00;;;;;-5.60;84.09;99423.41;5076449;28;8900;-59
2022/12/13 06:01:02;;;;;;;;;3.00;1.00;;;;;-5.60;84.24;99432.91;5076416;28;9551;-56
2022/12/13 06:03:30;;;;;;;;;4.50;4.50;;;;;-5.61;84.18;99428.59;5075760;28;8822;-59
2022/12/13 06:05:58;;;;;;;;;0.50;0.50;;;;;-5.62;84.29;99430.34;5075468;28;8830;-58
2022/12/13 06:08:26;;;;;;;;;2.50;2.50;;;;;-5.63;84.36;99430.38;5075792;28;8838;-59
2022/12/13 06:10:55;;;;;;;;;5.00;3.75;;;;;-5.64;84.05;99424.34;5075405;28;8817;-58
2022/12/13 06:13:38;;;;;;;;;6.00;4.50;;;;;-5.65;84.44;99425.22;5074534;28;8849;-58
2022/12/13 06:16:09;;;;;;;;;4.50;3.75;;;;;-5.66;84.17;99423.53;5074891;28;8936;-58
2022/12/13 06:18:50;;;;;;;;;3.75;3.75;;;;;-5.64;83.74;99421.75;5073648;28;8826;-58
2022/12/13 06:21:28;;;;;;;;;4.75;1.50;;;;;-5.63;84.25;99431.22;5073321;28;8830;-59
2022/12/13 06:24:11;;;;;;;;;2.50;1.50;;;;;-5.63;84.56;99436.41;5074597;28;8921;-59
2022/12/13 06:26:39;;;;;;;;;0.00;0.00;;;;;-5.63;84.26;99436.41;5074793;28;8854;-58
2022/12/13 06:29:07;;;;;;;;;0.00;0.00;;;;;-5.63;84.62;99444.19;5073408;28;8862;-59
2022/12/13 06:31:35;;;;;;;;;3.75;3.75;;;;;-5.64;84.30;99444.22;5072928;28;8832;-59
2022/12/13 06:34:03;;;;;;;;;3.25;2.00;;;;;-5.63;84.44;99435.56;5072996;28;9541;-57
2022/12/13 06:36:41;;;;;;;;;4.00;4.00;;;;;-5.63;84.18;99441.59;5072664;28;8911;-59
2022/12/13 06:39:09;;;;;;;;;3.75;3.75;;;;;-5.66;84.32;99444.28;5072743;28;8970;-59
2022/12/13 06:41:37;;;;;;;;;2.75;2.75;;;;;-5.66;84.03;99440.81;5072869;28;8826;-57
2022/12/13 06:44:04;;;;;;;;;2.00;1.00;;;;;-5.69;84.40;99438.31;5072059;28;8862;-58
2022/12/13 06:46:32;;;;;;;;;6.50;6.25;;;;;-5.71;84.41;99440.91;5071592;28;8880;-57
2022/12/13 06:49:00;;;;;;;;;2.50;2.50;;;;;-5.72;83.55;99434.03;5071675;28;8818;-58
2022/12/13 06:51:28;;;;;;;;;7.00;6.75;;;;;-5.74;84.09;99441.00;5072245;28;8860;-57
2022/12/13 06:54:00;;;;;;;;;5.50;4.50;;;;;-5.73;83.93;99436.66;5071910;28;8912;-59
2022/12/13 06:56:28;;;;;;;;;3.00;3.00;;;;;-5.74;84.04;99428.06;5071212;28;8837;-58
2022/12/13 06:58:56;;;;;;;;;4.00;4.00;;;;;-5.73;84.17;99434.06;5071493;28;8841;-59
2022/12/13 07:01:28;;;;;;;;;4.50;4.50;;;;;-5.74;84.40;99437.53;5071726;28;8830;-59
2022/12/13 07:04:04;;;;;;;;;4.25;3.75;;;;;-5.75;84.61;99434.13;5070676;28;8847;-58
2022/12/13 07:06:51;;;;;;;;;3.00;3.00;;;;;-5.75;84.10;99441.91;5070892;28;8962;-59
2022/12/13 07:09:19;;;;;;;;;7.75;7.75;;;;;-5.79;84.08;99440.25;5070863;28;8842;-58
2022/12/13 07:11:47;;;;;;;;;3.00;3.00;;;;;-5.82;84.13;99442.94;5071061;28;9560;-59
2022/12/13 07:14:20;;;;;;;;;3.75;3.75;;;;;-5.85;84.29;99443.00;5070881;28;8822;-58
2022/12/13 07:16:48;;;;;;;;;1.00;1.00;;;;;-5.88;84.18;99447.41;5071328;28;8821;-59
2022/12/13 07:19:16;;;;;;;;;6.25;5.75;;;;;-5.93;84.42;99444.91;5072018;28;8954;-59
2022/12/13 07:21:50;;;;;;;;;3.50;3.00;;;;;-5.94;84.35;99442.34;5072187;28;8834;-58
2022/12/13 07:24:19;;;;;;;;;3.25;3.25;;;;;-5.95;84.12;99440.66;5071323;28;8845;-57
2022/12/13 07:26:46;;;;;;;;;1.50;1.00;;;;;-5.95;84.19;99443.25;5072806;28;8979;-58
2022/12/13 07:29:14;;;;;;;;;4.25;3.00;;;;;-5.96;84.64;99445.00;5072236;28;8839;-59
2022/12/13 07:31:49;;;;;;;;;4.25;4.25;;;;;-5.95;84.24;99446.69;5072673;28;8968;-59
2022/12/13 07:34:17;;;;;;;;;1.00;1.00;;;;;-5.97;84.35;99443.28;5071956;28;8833;-59
2022/12/13 07:36:45;;;;;;;;;4.50;4.50;;;;;-5.95;84.17;99448.41;5070652;28;8822;-58
2022/12/13 07:39:13;;;;;;;;;3.75;3.75;;;;;-5.93;84.27;99459.63;5069574;28;8822;-59
2022/12/13 07:41:41;;;;;;;;;6.75;6.75;;;;;-5.92;84.34;99450.97;5069449;28;8915;-59
2022/12/13 07:44:08;;;;;;;;;4.00;4.00;;;;;-5.91;84.17;99448.31;5069863;28;8858;-58
2022/12/13 07:46:36;;;;;;;;;4.00;4.00;;;;;-5.89;84.43;99449.16;5069519;28;8841;-59
2022/12/13 07:49:05;;;;;;;;;7.50;5.50;;;;;-5.86;83.79;99451.66;5069654;28;8842;-58
2022/12/13 07:51:33;;;;;;;;;3.00;3.00;;;;;-5.83;84.04;99451.63;5070503;28;8850;-59
2022/12/13 07:54:01;;;;;;;;;4.50;4.50;;;;;-5.77;83.99;99450.59;5071641;28;8845;-59
2022/12/13 07:56:33;;;;;;;;;6.25;6.00;;;;;-5.73;84.33;99447.88;5071852;28;8838;-59
2022/12/13 07:59:01;;;;;;;;;4.00;3.25;;;;;-5.66;84.67;99454.63;5072265;28;8838;-57
2022/12/13 08:01:30;;;;;;;;;3.00;3.00;;;;;-5.61;84.18;99444.16;5072386;28;8848;-58
2022/12/13 08:03:58;;;;;;;;;3.75;3.75;;;;;-5.58;83.74;99441.47;5072297;28;8849;-58
2022/12/13 08:06:26;;;;;;;;;5.00;4.50;;;;;-5.55;83.95;99439.66;5071239;28;8826;-56
2022/12/13 08:08:53;;;;;;;;;2.25;2.25;;;;;-5.50;83.63;99442.16;5073332;28;8910;-58
2022/12/13 08:11:21;;;;;;;;;7.50;6.75;;;;;-5.46;83.85;99439.44;5075118;28;8826;-57
2022/12/13 08:13:50;;;;;;;;;5.50;4.50;;;;;-5.42;83.58;99443.69;5076073;28;8837;-59
2022/12/13 08:16:18;;;;;;;;;5.50;5.50;;;;;-5.38;83.42;99444.47;5076149;28;8841;-59
2022/12/13 08:18:55;;;;;;;;;3.25;3.00;;;;;-5.36;83.57;99442.69;5076295;28;8848;-59
2022/12/13 08:21:30;;;;;;;;;6.00;4.50;;;;;-5.33;83.51;99443.44;5076558;28;8829;-58
2022/12/13 08:24:18;;;;;;;;;6.50;6.00;;;;;-5.26;83.78;99449.38;5075785;28;8850;-58
2022/12/13 08:26:46;;;;;;;;;4.00;3.50;;;;;-5.22;83.68;99445.78;5075289;28;9638;-59
2022/12/13 08:29:14;;;;;;;;;3.00;1.00;;;;;-5.14;83.78;99447.31;5074632;28;8845;-59
2022/12/13 08:31:59;;;;;;;;;0.50;0.50;;;;;-4.93;83.68;99444.16;5074879;28;8838;-57
2022/12/13 08:34:28;;;;;;;;;4.50;4.00;;;;;-4.78;83.20;99438.53;5074507;28;8984;-58
2022/12/13 08:36:55;;;;;;;;;4.50;4.50;;;;;-4.70;83.15;99447.00;5073990;28;8822;-58
2022/12/13 08:39:29;;;;;;;;;6.60;6.60;;;;;-4.65;83.01;99447.72;5074470;28;8826;-59
2022/12/13 08:42:01;;;;;;;;;3.80;3.80;;;;;-4.60;83.34;99450.19;5074840;28;8829;-59
2022/12/13 08:44:44;;;;;;;;;4.00;4.00;;;;;-4.56;83.23;99449.22;5075165;28;8845;-58
2022/12/13 08:47:12;;;;;;;;;4.80;4.80;;;;;-4.53;83.17;99447.41;5073415;28;9012;-58
2022/12/13 08:49:50;;;;;;;;;6.75;6.75;;;;;-4.49;82.61;99445.56;5073035;28;8817;-57
2022/12/13 08:52:18;;;;;;;;;3.40;3.00;;;;;-4.47;82.87;99439.44;5072988;28;8841;-58
2022/12/13 08:54:48;;;;;;;;;6.20;6.20;;;;;-4.46;82.92;99448.94;5072915;28;8902;-59
2022/12/13 08:57:16;;;;;;;;;7.40;7.40;;;;;-4.44;82.60;99448.88;5073758;28;9773;-57
2022/12/13 08:59:44;;;;;;;;;6.00;6.00;;;;;-4.44;82.89;99449.72;5073745;28;8833;-57
2022/12/13 09:02:12;;;;;;;;;1.40;1.40;;;;;-4.42;83.10;99455.72;5074093;28;8841;-57
2022/12/13 09:04:40;;;;;;;;;5.60;5.60;;;;;-4.38;83.15;99449.56;5074587;28;8855;-58
2022/12/13 09:07:10;;;;;;;;;4.00;4.00;;;;;-4.33;82.82;99452.03;5074838;28;8818;-57
2022/12/13 09:09:37;;;;;;;;;3.80;3.80;;;;;-4.26;82.95;99448.38;5074844;28;8826;-58
2022/12/13 09:12:05;;;;;;;;;1.80;1.40;;;;;-4.19;82.68;99445.53;5074306;28;8834;-59
2022/12/13 09:14:53;;;;;;;;;6.00;4.40;;;;;-4.08;83.14;99451.28;5073746;28;8951;-59
2022/12/13 09:17:28;;;;;;;;;3.60;3.60;;;;;-3.98;82.69;99455.31;5073268;28;8935;-59
2022/12/13 09:20:03;;;;;;;;;3.20;3.20;;;;;-3.87;82.34;99468.88;5072732;28;8863;-58
2022/12/13 09:22:53;;;;;;;;;6.20;5.20;;;;;-3.79;82.69;99461.69;5073404;28;8841;-59
2022/12/13 09:25:28;;;;;;;;;0.20;0.20;;;;;-3.69;82.45;99450.94;5073197;28;8848;-58
2022/12/13 09:28:04;;;;;;;;;4.40;3.60;;;;;-3.55;82.17;99459.16;5072936;28;8927;-59
2022/12/13 09:30:32;;;;;;;;;7.20;6.80;;;;;-3.44;81.82;99458.81;5072008;28;8852;-59
2022/12/13 09:33:00;;;;;;;;;5.80;5.80;;;;;-3.34;82.16;99447.25;5071808;28;8829;-59
2022/12/13 09:35:48;;;;;;;;;3.80;3.80;;;;;-3.27;82.18;99439.19;5070596;28;8939;-59
2022/12/13 09:38:17;;;;;;;;;6.80;6.80;;;;;-3.13;81.87;99441.31;5072071;28;9499;-59
2022/12/13 09:40:45;;;;;;;;;6.80;6.60;;;;;-2.96;81.65;99446.84;5072331;28;8968;-58
2022/12/13 09:43:13;;;;;;;;;6.60;6.60;;;;;-2.82;81.20;99444.59;5073313;28;9029;-59
2022/12/13 09:45:50;;;;;;;;;2.60;1.80;;;;;-2.66;81.65;99445.78;5073095;28;9480;-59
2022/12/13 09:48:28;;;;;;;;;4.40;4.40;;;;;-2.44;81.53;99442.34;5073351;28;8926;-59
2022/12/13 09:51:02;;;;;;;;;6.80;6.00;;;;;-2.17;80.77;99443.97;5074435;28;8833;-59
2022/12/13 09:53:50;;;;;;;;;6.40;6.00;;;;;-1.88;79.72;99451.56;5073436;28;8968;-58
2022/12/13 09:56:18;;;;;;;;;9.40;9.00;;;;;-1.56;79.55;99439.88;5073923;28;8863;-59
2022/12/13 09:58:46;;;;;;;;;6.00;5.40;;;;;-1.25;78.73;99437.75;5071887;28;9227;-59
2022/12/13 10:01:14;;;;;;;;;6.80;5.80;;;;;-0.81;77.53;99426.31;5072728;28;8849;-57
2022/12/13 10:03:50;;;;;;;;;6.40;5.20;;;;;-0.31;77.62;99428.44;5072577;28;8838;-59
2022/12/13 10:06:18;;;;;;;;;7.40;7.40;;;;;0.13;77.45;99424.66;5072811;28;8837;-58
2022/12/13 10:08:50;;;;;;;;;12.80;12.80;;;;;0.58;76.70;99417.25;5072334;28;8817;-58
2022/12/13 10:11:25;;;;;;;;;3.00;3.00;;;;;1.06;77.01;99415.72;5070410;28;8841;-59
2022/12/13 10:13:59;;;;;;;;;6.60;6.60;;;;;1.72;75.92;99419.28;5070825;28;8854;-59
2022/12/13 10:16:28;;;;;;;;;6.80;6.80;;;;;2.46;75.02;99411.69;5070640;28;8992;-57
2022/12/13 10:19:03;;;;;;;;;2.60;2.60;;;;;2.84;74.36;99396.38;5071141;28;9686;-60
2022/12/13 10:21:32;;;;;;;;;11.60;9.20;;;;;2.92;73.74;99392.38;5070831;28;9149;-59
2022/12/13 10:23:59;;;;;;;;;6.40;6.00;;;;;2.78;74.53;99384.44;5070334;28;9239;-59
2022/12/13 10:26:47;;;;;;;;;9.80;8.20;;;;;2.75;74.89;99389.03;5069610;28;9543;-59
2022/12/13 10:29:16;;;;;;;;;10.40;9.00;;;;;3.00;74.43;99382.28;5069971;28;8841;-57
2022/12/13 10:31:44;;;;;;;;;6.60;6.60;;;;;3.39;74.30;99376.47;5070043;28;8944;-60
2022/12/13 10:34:12;;;;;;;;;5.20;5.20;;;;;3.73;73.51;99382.22;5069896;28;8842;-59
2022/12/13 10:36:42;;;;;;;;;8.20;8.20;;;;;3.95;73.27;99379.97;5070489;28;9027;-59
2022/12/13 10:39:10;;;;;;;;;9.60;8.00;;;;;4.14;73.91;99375.22;5070602;28;8838;-59
2022/12/13 10:41:40;;;;;;;;;10.80;10.80;;;;;4.52;73.49;99371.00;5071423;28;8952;-59
2022/12/13 10:44:08;;;;;;;;;13.60;12.80;;;;;5.00;72.72;99363.38;5070378;28;9004;-59
2022/12/13 10:46:36;;;;;;;;;10.00;10.00;;;;;5.41;71.65;99369.34;5069606;28;8996;-60
2022/12/13 10:49:05;;;;;;;;;12.60;12.60;;;;;5.47;72.05;99358.38;5069486;28;8834;-59
2022/12/13 10:51:33;;;;;;;;;16.40;14.60;;;;;5.30;72.94;99366.59;5068887;28;8880;-59
2022/12/13 10:54:01;;;;;;;;;11.80;10.80;;;;;5.05;73.21;99353.38;5068711;28;8845;-59
2022/12/13 10:56:29;;;;;;;;;9.00;7.00;;;;;4.83;74.39;99349.59;5068708;28;8865;-59
2022/12/13 10:58:57;;;;;;;;;10.40;9.60;;;;;4.75;74.81;99351.91;5066691;28;9105;-60
2022/12/13 11:01:25;;;;;;;;;6.80;6.80;;;;;4.70;74.41;99344.28;5068898;28;8837;-58
2022/12/13 11:03:53;;;;;;;;;14.80;11.80;;;;;4.73;75.19;99337.97;5068937;28;8830;-58
2022/12/13 11:06:30;;;;;;;;;16.60;13.00;;;;;4.74;74.72;99342.31;5069902;28;8943;-60
2022/12/13 11:08:57;;;;;;;;;14.60;13.00;;;;;4.78;74.97;99328.81;5069479;28;8884;-60
2022/12/13 11:11:28;;;;;;;;;13.80;11.60;;;;;4.94;74.80;99324.19;5069555;28;8865;-59
2022/12/13 11:13:55;;;;;;;;;11.00;9.20;;;;;5.00;74.69;99325.56;5070073;28;8854;-58
2022/12/13 11:16:24;;;;;;;;;4.40;4.40;;;;;4.85;74.28;99322.19;5069779;28;8867;-60
2022/12/13 11:18:53;;;;;;;;;15.80;15.00;;;;;4.46;75.58;99310.78;5068841;28;8838;-60
2022/12/13 11:21:21;;;;;;;;;12.00;12.00;;;;;4.03;76.18;99314.50;5069679;28;8981;-60
2022/12/13 11:23:49;;;;;;;;;18.00;16.40;;;;;3.75;77.06;99306.63;5070614;28;8836;-60
2022/12/13 11:26:17;;;;;;;;;10.40;8.20;;;;;3.55;77.27;99312.25;5069319;28;8887;-60
2022/12/13 11:28:51;;;;;;;;;9.20;8.60;;;;;3.37;77.32;99305.50;5069959;28;8838;-60
2022/12/13 11:31:20;;;;;;;;;9.60;9.60;;;;;3.28;77.24;99319.22;5069526;28;8860;-59
2022/12/13 11:33:48;;;;;;;;;10.80;10.80;;;;;3.31;77.03;99318.16;5069260;28;8837;-60
2022/12/13 11:36:16;;;;;;;;;7.40;6.80;;;;;3.34;77.57;99312.72;5069992;28;8856;-60
2022/12/13 11:38:44;;;;;;;;;4.00;3.20;;;;;3.55;76.79;99301.72;5068924;28;8846;-59
2022/12/13 11:41:13;;;;;;;;;7.40;7.40;;;;;3.80;75.96;99297.50;5069781;28;8935;-60
2022/12/13 11:44:01;;;;;;;;;15.40;13.80;;;;;4.04;75.46;99292.47;5069984;28;8850;-60
2022/12/13 11:46:31;;;;;;;;;12.60;11.20;;;;;4.45;74.90;99298.53;5072490;28;8853;-60
2022/12/13 11:48:59;;;;;;;;;11.20;10.80;;;;;4.54;74.25;99290.88;5072211;28;8830;-60
2022/12/13 11:51:28;;;;;;;;;6.00;5.20;;;;;4.61;74.72;99278.13;5071995;28;8830;-60
2022/12/13 11:53:56;;;;;;;;;9.60;9.40;;;;;4.69;74.20;99279.31;5072769;28;8841;-60
2022/12/13 11:56:24;;;;;;;;;14.80;13.20;;;;;4.54;74.81;99277.69;5071888;28;8842;-60